EHSC

Goeree Le Sea

Goeree Le Sea, The Netherlands
METAR EHSC 231555Z AUTO 08022KT 9999 ///////// 03/M05 Q1020 W06/H10
Observed Flight Rules
Feb-23 @ 15:55 UTC (38 minutes ago)
Wind Visibility
80° at 22 knots 10,000+ meters
Temperatures Readings
Current 3°C / 37°F
Dewpoint -5°C / 23°F
Humidity 56%
Altimeter 30.12" Hg
Pressure 1020 hPa
Elevation 50
METAR EHSC 231555Z AUTO 08022KT 9999 ///////// 03/M05 Q1020 W06/H10
Observed Flight Rules
Feb-23 @ 15:55 UTC
(38 minutes ago)
Wind Visibility
80° at 22 knots 10,000+ meters
Temperature Dewpoint
3°C / 37°F -5°C / 23°F
Humidity Altimeter Pressure
56% 30.12" Hg 1020 hPa